Time;durP1;ratioP1;P1;durP2;ratioP2;P2;SDS_P1;SDS_P2;PMS_P1;PMS_P2;Temp;Humidity;BMP_temperature;BMP_pressure;BME280_temperature;BME280_humidity;BME280_pressure;Samples;Min_cycle;Max_cycle;Signal;HPM_P1;HPM_P2
2022/10/23 00:01:31;;;;;;;8.02;4.00;;;;;;;16.88;75.90;98613.97;5072963;28;20020;-45
2022/10/23 00:04:00;;;;;;;17.48;9.82;;;;;;;16.77;76.01;98609.53;5072894;28;20017;-46
2022/10/23 00:06:28;;;;;;;11.38;5.78;;;;;;;16.78;76.84;98617.25;5071510;28;20035;-45
2022/10/23 00:08:54;;;;;;;10.27;4.75;;;;;;;16.92;76.52;98609.78;5072853;28;20390;-46
2022/10/23 00:11:23;;;;;;;11.20;3.63;;;;;;;17.03;76.06;98608.09;5072395;28;20414;-46
2022/10/23 00:13:50;;;;;;;10.13;4.05;;;;;;;17.17;75.63;98611.19;5072703;28;20151;-46
2022/10/23 00:16:16;;;;;;;13.40;3.70;;;;;;;17.24;75.07;98609.13;5072939;28;20060;-45
2022/10/23 00:18:42;;;;;;;11.50;4.50;;;;;;;17.18;75.12;98599.53;5105175;28;20059;-46
2022/10/23 00:21:10;;;;;;;12.52;4.45;;;;;;;17.23;75.79;98601.47;5072528;28;20033;-46
2022/10/23 00:23:36;;;;;;;12.00;5.10;;;;;;;17.40;75.71;98598.75;5071160;28;20029;-46
2022/10/23 00:26:03;;;;;;;13.30;4.68;;;;;;;17.57;75.08;98600.28;5072381;28;20069;-46
2022/10/23 00:28:28;;;;;;;11.05;4.80;;;;;;;17.77;74.35;98599.69;5072450;28;20023;-46
2022/10/23 00:30:54;;;;;;;12.45;4.82;;;;;;;17.92;73.84;98588.47;5071354;28;20032;-45
2022/10/23 00:33:20;;;;;;;15.73;5.35;;;;;;;18.06;72.96;98588.06;5071524;28;20029;-46
2022/10/23 00:35:46;;;;;;;11.60;4.75;;;;;;;18.16;72.58;98585.50;5072317;28;20107;-46
2022/10/23 00:38:12;;;;;;;10.98;4.18;;;;;;;18.24;72.29;98581.59;5072498;28;20023;-46
2022/10/23 00:40:39;;;;;;;13.35;4.93;;;;;;;18.27;72.16;98575.75;5072195;28;20460;-46
2022/10/23 00:43:10;;;;;;;15.23;4.53;;;;;;;18.32;71.81;98571.28;5072173;28;20029;-46
2022/10/23 00:45:35;;;;;;;12.68;5.13;;;;;;;18.33;71.64;98578.22;5072176;28;20036;-46
2022/10/23 00:48:02;;;;;;;13.93;4.80;;;;;;;18.35;71.27;98572.63;5072131;28;20125;-46
2022/10/23 00:50:31;;;;;;;17.20;5.50;;;;;;;18.35;71.20;98565.47;5072050;28;20029;-46
2022/10/23 00:53:01;;;;;;;11.48;4.18;;;;;;;18.43;71.02;98552.78;5104475;28;20044;-46
2022/10/23 00:55:29;;;;;;;10.70;3.95;;;;;;;18.41;70.76;98566.34;5072045;28;20074;-46
2022/10/23 00:57:55;;;;;;;13.82;5.13;;;;;;;18.35;71.03;98569.97;5071958;28;20033;-46
2022/10/23 01:00:30;;;;;;;12.18;5.05;;;;;;;18.36;71.02;98571.59;5070618;28;20024;-46
2022/10/23 01:02:57;;;;;;;15.68;4.65;;;;;;;18.34;70.95;98571.03;5070923;28;20024;-46
2022/10/23 01:05:30;;;;;;;14.32;4.72;;;;;;;18.29;71.07;98571.00;5070833;28;20075;-46
2022/10/23 01:08:05;;;;;;;11.25;4.53;;;;;;;18.30;71.07;98568.09;5071877;28;20120;-46
2022/10/23 01:10:49;;;;;;;11.15;4.00;;;;;;;18.28;71.08;98559.56;5070448;28;20123;-46
2022/10/23 01:13:42;;;;;;;15.18;4.90;;;;;;;18.21;71.03;98574.13;5071838;28;20435;-46
2022/10/23 01:16:20;;;;;;;14.60;4.82;;;;;;;18.22;71.17;98557.13;5071737;28;20021;-46
2022/10/23 01:19:20;;;;;;;11.48;3.90;;;;;;;18.21;71.09;98560.84;5070435;28;20039;-46
2022/10/23 01:22:18;;;;;;;14.57;4.47;;;;;;;18.10;71.43;98559.94;5104132;28;20032;-46
2022/10/23 01:25:07;;;;;;;11.40;4.60;;;;;;;17.91;72.02;98559.53;5059312;28;20041;-46
2022/10/23 01:27:38;;;;;;;11.05;4.60;;;;;;;17.80;72.75;98541.84;5072020;28;20059;-46
2022/10/23 01:30:11;;;;;;;15.45;4.47;;;;;;;17.80;72.72;98552.47;5071962;28;20435;-46
2022/10/23 01:33:05;;;;;;;12.75;5.40;;;;;;;17.74;72.92;98543.66;5071561;28;20568;-46
2022/10/23 01:35:36;;;;;;;17.02;5.53;;;;;;;17.75;72.97;98534.66;5104123;28;20070;-46
2022/10/23 01:38:08;;;;;;;14.15;4.65;;;;;;;17.68;73.00;98539.34;5071510;28;20078;-46
2022/10/23 01:40:47;;;;;;;12.63;4.97;;;;;;;17.65;73.21;98524.72;5070607;28;20033;-46
2022/10/23 01:43:20;;;;;;;11.52;5.13;;;;;;;17.65;73.21;98539.88;5071633;28;20023;-46
2022/10/23 01:45:51;;;;;;;14.88;4.70;;;;;;;17.71;73.05;98538.84;5075323;28;20036;-46
2022/10/23 01:48:25;;;;;;;13.70;5.68;;;;;;;17.74;72.63;98533.03;5074279;28;20097;-46
2022/10/23 01:50:54;;;;;;;14.68;4.25;;;;;;;17.86;72.33;98531.06;5075584;28;20502;-46
2022/10/23 01:53:21;;;;;;;13.57;4.90;;;;;;;17.93;71.88;98523.69;5108223;27;20021;-46
2022/10/23 01:55:48;;;;;;;12.93;5.05;;;;;;;17.98;71.52;98507.00;5075361;28;20495;-46
2022/10/23 01:58:15;;;;;;;12.45;4.18;;;;;;;18.04;71.38;98508.66;5075356;28;20020;-46
2022/10/23 02:00:44;;;;;;;17.50;5.60;;;;;;;18.08;71.02;98507.09;5073956;28;20028;-46
2022/10/23 02:03:12;;;;;;;13.93;4.38;;;;;;;18.08;71.20;98511.59;5073957;28;20032;-46
2022/10/23 02:05:38;;;;;;;10.10;4.95;;;;;;;18.11;70.83;98513.72;5074030;28;20082;-46
2022/10/23 02:08:05;;;;;;;16.13;5.55;;;;;;;18.12;70.80;98513.50;5073818;28;20033;-46
2022/10/23 02:10:55;;;;;;;16.67;4.65;;;;;;;18.15;70.74;98509.53;5074852;28;20119;-46
2022/10/23 02:13:33;;;;;;;17.00;5.15;;;;;;;18.14;70.61;98500.75;5074945;28;20032;-46
2022/10/23 02:16:25;;;;;;;10.75;5.07;;;;;;;18.14;70.39;98499.97;5074989;28;20394;-46
2022/10/23 02:19:01;;;;;;;17.15;8.35;;;;;;;18.16;70.40;98495.19;5070759;28;20052;-46
2022/10/23 02:21:45;;;;;;;13.32;5.43;;;;;;;18.23;70.15;98493.13;5074922;28;20028;-46
2022/10/23 02:24:14;;;;;;;14.48;4.40;;;;;;;18.32;69.75;98486.28;5107811;28;20074;-46
2022/10/23 02:26:55;;;;;;;12.07;4.22;;;;;;;18.28;69.82;98481.72;5073587;28;20058;-46
2022/10/23 02:29:30;;;;;;;9.07;3.83;;;;;;;18.28;69.76;98495.03;5107476;28;20074;-46
2022/10/23 02:31:56;;;;;;;16.92;4.53;;;;;;;18.25;69.58;98485.72;5074567;28;20016;-46
2022/10/23 02:34:22;;;;;;;15.02;4.43;;;;;;;18.25;69.34;98484.88;5074638;28;20102;-46
2022/10/23 02:36:48;;;;;;;15.35;3.88;;;;;;;18.21;69.11;98471.34;5073302;28;20024;-46
2022/10/23 02:39:13;;;;;;;12.27;3.90;;;;;;;18.10;69.50;98470.44;5073629;28;20056;-46
2022/10/23 02:41:54;;;;;;;12.07;3.75;;;;;;;17.91;69.92;98469.25;5074832;28;20565;-46
2022/10/23 02:44:19;;;;;;;10.45;4.30;;;;;;;17.67;70.63;98468.75;5074561;28;20471;-46
2022/10/23 02:47:29;;;;;;;10.05;4.47;;;;;;;17.48;71.43;98463.78;5074746;28;20103;-46
2022/10/23 02:50:03;;;;;;;17.90;4.10;;;;;;;17.49;71.69;98467.25;5052131;28;20466;-45
2022/10/23 02:52:40;;;;;;;13.60;4.53;;;;;;;17.39;71.83;98470.59;5052121;28;20029;-45
2022/10/23 02:55:16;;;;;;;16.70;3.90;;;;;;;17.41;71.63;98468.50;5035376;28;20029;-45
2022/10/23 02:58:14;;;;;;;10.50;4.00;;;;;;;17.55;71.84;98471.56;5051595;28;20044;-45
2022/10/23 03:00:47;;;;;;;10.88;3.25;;;;;;;17.85;70.22;98460.44;5030549;28;20049;-46
2022/10/23 03:03:18;;;;;;;11.60;3.92;;;;;;;18.12;69.07;98460.38;5052028;28;20090;-46
2022/10/23 03:05:45;;;;;;;11.07;3.45;;;;;;;18.38;67.73;98457.88;5035142;28;20035;-46
2022/10/23 03:08:12;;;;;;;12.35;3.47;;;;;;;18.54;66.84;98464.09;5051885;28;20025;-46
2022/10/23 03:10:40;;;;;;;14.10;3.70;;;;;;;18.65;66.33;98456.97;5034725;28;20053;-46
2022/10/23 03:13:05;;;;;;;18.02;3.65;;;;;;;18.87;65.85;98444.31;5034856;28;20543;-46
2022/10/23 03:15:31;;;;;;;16.60;3.63;;;;;;;19.01;65.25;98444.63;5051684;28;20096;-46
2022/10/23 03:17:57;;;;;;;14.18;3.63;;;;;;;19.05;64.72;98447.59;5034944;28;20455;-46
2022/10/23 03:20:22;;;;;;;12.30;3.80;;;;;;;19.06;64.70;98450.00;5051528;28;20493;-46
2022/10/23 03:22:48;;;;;;;12.25;3.45;;;;;;;19.07;64.57;98443.59;5051491;28;20051;-46
2022/10/23 03:25:14;;;;;;;11.38;3.55;;;;;;;19.06;64.60;98447.31;5055116;28;20037;-46
2022/10/23 03:27:40;;;;;;;9.23;3.28;;;;;;;19.07;64.72;98432.16;5073648;28;20047;-46
2022/10/23 03:30:06;;;;;;;12.98;3.85;;;;;;;19.05;64.72;98432.41;5073610;28;20059;-46
2022/10/23 03:32:32;;;;;;;10.27;3.78;;;;;;;19.02;64.77;98446.25;5072595;28;20489;-46
2022/10/23 03:34:58;;;;;;;14.70;3.85;;;;;;;19.02;64.53;98434.81;5073546;28;20033;-46
2022/10/23 03:37:23;;;;;;;10.90;3.60;;;;;;;19.01;64.59;98441.19;5073486;28;20494;-46
2022/10/23 03:39:49;;;;;;;13.68;3.83;;;;;;;19.01;64.57;98426.03;5073492;28;20028;-46
2022/10/23 03:42:15;;;;;;;12.70;3.67;;;;;;;18.98;64.79;98433.75;5073381;28;20028;-46
2022/10/23 03:44:41;;;;;;;9.82;4.05;;;;;;;18.99;64.56;98430.81;5072123;28;20557;-46
2022/10/23 03:47:08;;;;;;;12.43;3.63;;;;;;;19.01;64.45;98438.53;5071976;28;20028;-46
2022/10/23 03:49:34;;;;;;;9.32;3.60;;;;;;;19.04;64.28;98427.38;5073241;28;20021;-46
2022/10/23 03:52:00;;;;;;;15.02;4.57;;;;;;;19.06;63.93;98427.91;5105722;28;20494;-46
2022/10/23 03:54:28;;;;;;;12.60;3.85;;;;;;;19.03;63.73;98429.22;5073176;28;20024;-46
2022/10/23 03:56:54;;;;;;;14.90;3.42;;;;;;;19.04;63.87;98427.38;5073034;28;20031;-46
2022/10/23 03:59:20;;;;;;;12.77;2.97;;;;;;;19.07;63.76;98442.81;5073053;28;20024;-46
2022/10/23 04:01:46;;;;;;;12.32;3.03;;;;;;;19.15;63.28;98429.00;5072937;28;20024;-46
2022/10/23 04:04:12;;;;;;;9.45;3.28;;;;;;;19.21;63.22;98424.47;5072983;28;20039;-46
2022/10/23 04:06:38;;;;;;;13.98;3.47;;;;;;;19.29;62.40;98427.41;5071506;28;20074;-46
2022/10/23 04:09:04;;;;;;;13.27;3.38;;;;;;;19.32;62.41;98429.56;5071854;28;20403;-46
2022/10/23 04:11:30;;;;;;;7.35;2.85;;;;;;;19.38;62.22;98424.25;5072483;28;20048;-46
2022/10/23 04:13:56;;;;;;;15.65;3.35;;;;;;;19.42;62.28;98425.31;5072660;28;20048;-46
2022/10/23 04:16:23;;;;;;;12.85;3.50;;;;;;;19.44;62.21;98425.88;5071369;28;20483;-46
2022/10/23 04:18:49;;;;;;;17.58;3.50;;;;;;;19.43;62.03;98434.91;5072663;28;20486;-46
2022/10/23 04:21:15;;;;;;;10.82;3.58;;;;;;;19.43;62.02;98437.56;5071570;28;20086;-46
2022/10/23 04:23:41;;;;;;;10.38;2.97;;;;;;;19.38;62.39;98453.50;5071283;28;20032;-46
2022/10/23 04:26:07;;;;;;;10.32;4.10;;;;;;;19.32;62.55;98444.75;5105450;28;20028;-46
2022/10/23 04:28:32;;;;;;;12.18;3.80;;;;;;;19.24;62.80;98448.72;5072446;28;20100;-46
2022/10/23 04:30:58;;;;;;;9.30;3.20;;;;;;;19.19;63.05;98454.00;5072369;28;20023;-46
2022/10/23 04:33:24;;;;;;;9.48;3.47;;;;;;;19.15;63.22;98463.56;5071007;28;20025;-46
2022/10/23 04:35:50;;;;;;;6.40;3.03;;;;;;;19.17;63.04;98458.78;5072312;28;20463;-46
2022/10/23 04:38:15;;;;;;;15.20;4.25;;;;;;;19.16;63.02;98459.88;5072295;28;20020;-46
2022/10/23 04:40:41;;;;;;;9.63;4.53;;;;;;;19.14;62.99;98459.31;5072281;28;20422;-44
2022/10/23 04:43:07;;;;;;;13.98;4.05;;;;;;;19.14;62.89;98460.13;5072186;28;20096;-44
2022/10/23 04:45:32;;;;;;;12.45;3.35;;;;;;;19.15;62.86;98456.38;5072174;28;20025;-44
2022/10/23 04:47:58;;;;;;;10.45;3.15;;;;;;;19.18;62.84;98452.41;5070844;28;20060;-44
2022/10/23 04:50:24;;;;;;;14.13;3.60;;;;;;;19.20;62.52;98450.28;5070707;28;20036;-44
2022/10/23 04:52:53;;;;;;;16.73;3.65;;;;;;;19.19;62.58;98451.34;5072024;28;20100;-44
2022/10/23 04:55:19;;;;;;;15.30;3.50;;;;;;;19.18;62.71;98468.38;5072059;28;20104;-44
2022/10/23 04:57:45;;;;;;;10.55;4.00;;;;;;;19.14;62.71;98462.00;5072011;28;20406;-44
2022/10/23 05:00:13;;;;;;;11.35;3.00;;;;;;;19.13;62.76;98455.06;5071910;28;20033;-44
2022/10/23 05:02:39;;;;;;;13.90;3.88;;;;;;;19.13;62.69;98463.03;5071931;28;20020;-44
2022/10/23 05:05:06;;;;;;;9.93;3.65;;;;;;;19.07;62.84;98462.22;5071937;28;20041;-44
2022/10/23 05:07:32;;;;;;;11.00;3.50;;;;;;;19.00;63.21;98466.19;5072133;28;20025;-44
2022/10/23 05:09:57;;;;;;;16.20;3.30;;;;;;;19.04;62.98;98476.03;5104176;28;20031;-44
2022/10/23 05:12:25;;;;;;;10.63;3.30;;;;;;;19.10;62.78;98475.00;5071792;28;20376;-44
2022/10/23 05:14:51;;;;;;;11.15;3.00;;;;;;;19.20;62.54;98463.59;5071770;28;20036;-44
2022/10/23 05:17:23;;;;;;;14.77;4.15;;;;;;;19.33;61.61;98459.63;5070724;28;20495;-44
2022/10/23 05:19:56;;;;;;;17.80;3.60;;;;;;;19.44;61.04;98452.47;5071428;28;20043;-44
2022/10/23 05:22:26;;;;;;;14.07;3.28;;;;;;;19.51;60.74;98453.00;5104613;28;20036;-44
2022/10/23 05:24:53;;;;;;;17.55;3.75;;;;;;;19.57;60.65;98465.25;5104251;28;20023;-44
2022/10/23 05:27:19;;;;;;;15.10;4.13;;;;;;;19.64;60.32;98454.34;5071671;28;20043;-44
2022/10/23 05:29:44;;;;;;;12.20;2.95;;;;;;;19.79;59.64;98449.06;5071879;28;20184;-44
2022/10/23 05:32:14;;;;;;;8.82;3.72;;;;;;;19.88;58.99;98431.50;5071804;28;20103;-44
2022/10/23 05:34:41;;;;;;;10.55;2.97;;;;;;;19.95;58.67;98447.19;5070624;28;20025;-44
2022/10/23 05:37:11;;;;;;;10.43;2.97;;;;;;;19.94;58.77;98450.91;5071591;28;20063;-44
2022/10/23 05:39:37;;;;;;;11.60;3.30;;;;;;;19.97;58.53;98444.28;5071584;28;20065;-44
2022/10/23 05:42:03;;;;;;;20.13;4.53;;;;;;;19.94;59.02;98442.94;5071573;28;20028;-44
2022/10/23 05:44:28;;;;;;;15.20;4.20;;;;;;;20.03;58.44;98444.00;5071507;28;20028;-44
2022/10/23 05:46:54;;;;;;;15.02;4.13;;;;;;;20.06;58.67;98438.16;5071541;28;20503;-44
2022/10/23 05:49:20;;;;;;;16.80;4.68;;;;;;;20.08;58.61;98454.66;5071464;28;20020;-44
2022/10/23 05:51:46;;;;;;;15.50;3.95;;;;;;;20.07;58.67;98442.41;5071334;28;20027;-44
2022/10/23 05:54:11;;;;;;;16.08;3.85;;;;;;;20.07;58.62;98442.41;5071389;28;20507;-44
2022/10/23 05:56:41;;;;;;;9.98;3.63;;;;;;;20.04;59.06;98436.78;5070382;28;20028;-44
2022/10/23 05:59:07;;;;;;;23.35;4.68;;;;;;;20.03;59.15;98445.88;5086727;28;20077;-44
2022/10/23 06:01:32;;;;;;;20.08;3.85;;;;;;;20.02;59.40;98441.59;5070080;28;20103;-44
2022/10/23 06:04:00;;;;;;;14.00;4.85;;;;;;;20.03;58.95;98445.88;5071332;28;20035;-44
2022/10/23 06:06:26;;;;;;;14.88;3.78;;;;;;;20.07;59.37;98434.41;5071280;28;20121;-44
2022/10/23 06:08:51;;;;;;;15.30;4.10;;;;;;;20.08;59.18;98430.69;5069970;28;20060;-44
2022/10/23 06:11:18;;;;;;;21.73;4.55;;;;;;;20.12;59.33;98446.91;5071110;28;20086;-44
2022/10/23 06:13:44;;;;;;;19.27;4.68;;;;;;;20.14;59.00;98440.25;5071213;28;20020;-44
2022/10/23 06:16:16;;;;;;;15.70;4.15;;;;;;;20.13;58.92;98428.00;5071197;28;20092;-44
2022/10/23 06:18:42;;;;;;;14.05;3.90;;;;;;;20.15;59.14;98433.84;5071210;28;20617;-44
2022/10/23 06:21:09;;;;;;;12.32;4.18;;;;;;;20.19;58.92;98446.66;5071151;28;20025;-44
2022/10/23 06:23:36;;;;;;;19.17;4.20;;;;;;;20.22;58.85;98441.59;5103634;28;20119;-44
2022/10/23 06:26:03;;;;;;;10.82;3.55;;;;;;;20.30;58.34;98440.22;5071056;28;20021;-44
2022/10/23 06:28:29;;;;;;;19.45;4.68;;;;;;;20.33;58.53;98440.47;5071121;28;20090;-44
2022/10/23 06:30:54;;;;;;;14.88;3.83;;;;;;;20.34;58.41;98422.63;5071484;28;20478;-44
2022/10/23 06:33:20;;;;;;;26.30;5.60;;;;;;;20.34;58.39;98433.28;5074656;28;20446;-44
2022/10/23 06:35:46;;;;;;;18.85;4.00;;;;;;;20.33;58.15;98424.50;5056662;28;20020;-44
2022/10/23 06:38:12;;;;;;;24.55;5.38;;;;;;;20.37;58.46;98421.31;5073297;28;20032;-44
2022/10/23 06:40:37;;;;;;;13.77;3.33;;;;;;;20.40;57.99;98410.88;5074500;28;20024;-44
2022/10/23 06:43:04;;;;;;;20.48;4.63;;;;;;;20.42;58.05;98434.59;5073535;28;20436;-44
2022/10/23 06:45:35;;;;;;;15.93;4.22;;;;;;;20.44;57.90;98427.91;5073171;28;20028;-44
2022/10/23 06:48:00;;;;;;;17.30;4.13;;;;;;;20.34;58.18;98417.28;5074481;28;20517;-44
2022/10/23 06:50:29;;;;;;;12.32;3.53;;;;;;;20.35;57.92;98425.03;5074343;28;20028;-44
2022/10/23 06:52:55;;;;;;;16.17;4.13;;;;;;;20.39;57.91;98430.63;5106161;28;20051;-44
2022/10/23 06:55:22;;;;;;;19.92;3.25;;;;;;;20.40;57.47;98426.88;5073288;28;20016;-44
2022/10/23 06:57:47;;;;;;;15.73;4.10;;;;;;;20.42;57.59;98405.28;5074275;28;20119;-44
2022/10/23 07:00:13;;;;;;;18.17;3.22;;;;;;;20.50;57.43;98410.88;5072892;28;20051;-44
2022/10/23 07:02:39;;;;;;;19.33;4.38;;;;;;;20.47;57.17;98424.72;5072882;28;20032;-44
2022/10/23 07:05:05;;;;;;;18.65;3.72;;;;;;;20.46;57.29;98420.44;5106664;28;20032;-44
2022/10/23 07:07:31;;;;;;;17.90;3.65;;;;;;;20.48;57.28;98426.34;5072783;28;20036;-44
2022/10/23 07:09:57;;;;;;;20.25;5.68;;;;;;;20.56;56.97;98422.28;5106927;28;20078;-44
2022/10/23 07:12:22;;;;;;;12.52;3.70;;;;;;;20.59;56.75;98432.44;5106514;28;20056;-44
2022/10/23 07:14:48;;;;;;;17.55;4.53;;;;;;;20.58;57.68;98428.16;5072664;28;20031;-44
2022/10/23 07:17:14;;;;;;;20.67;4.25;;;;;;;20.52;58.24;98431.91;5073967;28;20021;-44
2022/10/23 07:19:39;;;;;;;16.58;5.18;;;;;;;20.44;58.58;98429.78;5072588;28;20060;-44
2022/10/23 07:22:05;;;;;;;18.90;5.20;;;;;;;20.42;58.42;98419.41;5073859;28;20032;-44
2022/10/23 07:24:35;;;;;;;18.80;4.72;;;;;;;20.50;58.05;98408.19;5073775;28;20020;-44
2022/10/23 07:27:05;;;;;;;16.20;3.83;;;;;;;20.54;57.31;98429.75;5106360;28;20044;-44
2022/10/23 07:29:31;;;;;;;15.07;4.72;;;;;;;20.61;56.65;98432.19;5072464;28;20134;-44
2022/10/23 07:31:59;;;;;;;18.95;4.40;;;;;;;20.60;56.77;98436.69;5073589;28;20052;-44
2022/10/23 07:34:26;;;;;;;19.92;4.68;;;;;;;20.66;56.42;98440.94;5073702;28;20180;-44
2022/10/23 07:36:53;;;;;;;18.40;3.75;;;;;;;20.77;56.48;98447.06;5106421;28;20039;-44
2022/10/23 07:39:21;;;;;;;20.02;4.55;;;;;;;20.90;56.07;98443.78;5073562;28;20398;-44
2022/10/23 07:41:47;;;;;;;22.80;6.00;;;;;;;21.04;55.90;98437.88;5073411;28;20095;-44
2022/10/23 07:44:13;;;;;;;21.27;4.80;;;;;;;21.15;55.20;98448.22;5073464;28;20035;-44
2022/10/23 07:46:39;;;;;;;29.17;6.32;;;;;;;21.22;55.54;98444.44;5071988;28;20166;-44
2022/10/23 07:49:05;;;;;;;21.65;5.57;;;;;;;21.24;55.42;98429.72;5105982;28;20111;-44
2022/10/23 07:51:30;;;;;;;21.33;5.47;;;;;;;21.31;55.37;98427.56;5073192;28;20513;-44
2022/10/23 07:53:56;;;;;;;25.85;5.95;;;;;;;21.39;55.17;98444.88;5073185;28;20283;-44
2022/10/23 07:56:30;;;;;;;24.88;5.30;;;;;;;21.45;54.86;98457.16;5073179;28;20052;-44
2022/10/23 07:58:56;;;;;;;28.45;5.85;;;;;;;21.41;55.04;98452.59;5073111;28;20040;-44
2022/10/23 08:01:31;;;;;;;26.38;5.55;;;;;;;21.33;55.04;98459.34;5073060;28;20020;-44
2022/10/23 08:03:57;;;;;;;28.92;6.13;;;;;;;21.26;55.26;98440.13;5071674;28;20075;-44
2022/10/23 08:06:23;;;;;;;23.35;5.38;;;;;;;21.27;55.81;98449.72;5072836;28;20035;-44
2022/10/23 08:08:49;;;;;;;28.00;5.53;;;;;;;21.23;56.17;98454.03;5105414;28;20111;-44
2022/10/23 08:11:23;;;;;;;28.92;5.88;;;;;;;21.20;55.89;98463.38;5072559;28;20123;-44
2022/10/23 08:13:50;;;;;;;25.45;5.15;;;;;;;21.17;55.94;98457.78;5072805;28;20017;-44
2022/10/23 08:16:16;;;;;;;28.02;5.82;;;;;;;21.16;55.98;98462.34;5105308;28;20039;-44
2022/10/23 08:18:44;;;;;;;19.67;6.65;;;;;;;21.22;56.03;98460.44;5105336;28;20025;-44
2022/10/23 08:21:10;;;;;;;24.45;5.72;;;;;;;21.24;56.04;98469.78;5072554;28;20029;-44
2022/10/23 08:23:37;;;;;;;29.27;4.93;;;;;;;21.32;55.19;98479.06;5072593;28;20498;-44
2022/10/23 08:26:04;;;;;;;29.73;6.90;;;;;;;21.34;55.63;98463.59;5071211;28;20032;-44
2022/10/23 08:28:30;;;;;;;35.53;6.30;;;;;;;21.39;55.44;98460.91;5105122;28;20494;-44
2022/10/23 08:30:56;;;;;;;23.77;5.60;;;;;;;21.45;55.03;98453.66;5072424;28;20024;-44
2022/10/23 08:33:22;;;;;;;20.55;4.85;;;;;;;21.54;54.72;98433.31;5071286;28;20028;-44
2022/10/23 08:35:48;;;;;;;29.75;5.53;;;;;;;21.67;54.54;98423.84;5104935;28;20032;-44
2022/10/23 08:38:14;;;;;;;30.63;5.47;;;;;;;21.72;54.08;98421.94;5104906;28;20024;-44
2022/10/23 08:40:45;;;;;;;25.90;5.63;;;;;;;21.80;54.37;98419.75;5072245;28;20055;-44
2022/10/23 08:43:11;;;;;;;34.58;5.65;;;;;;;21.97;53.88;98425.47;5071278;28;20028;-44
2022/10/23 08:45:46;;;;;;;21.85;5.55;;;;;;;22.10;52.49;98402.66;5104814;28;20020;-44
2022/10/23 08:48:18;;;;;;;25.17;4.72;;;;;;;22.24;52.71;98397.47;5072202;28;20028;-44
2022/10/23 08:50:49;;;;;;;22.20;5.22;;;;;;;22.25;52.30;98401.72;5104699;28;20067;-44
2022/10/23 08:53:26;;;;;;;23.40;5.35;;;;;;;22.15;52.48;98402.59;5071834;28;20630;-44
2022/10/23 08:56:30;;;;;;;27.30;6.10;;;;;;;22.09;52.36;98419.75;5071929;28;20032;-44
2022/10/23 08:59:18;;;;;;;27.25;7.90;;;;;;;22.09;51.58;98388.50;5071240;28;20041;-44
2022/10/23 09:02:21;;;;;;;19.90;5.13;;;;;;;22.11;51.44;98382.84;5072275;28;20074;-44
2022/10/23 09:04:50;;;;;;;18.05;4.95;;;;;;;22.09;51.25;98387.69;5049517;28;20116;-44
2022/10/23 09:07:50;;;;;;;30.08;6.30;;;;;;;22.09;51.84;98380.47;5032942;28;20040;-44
2022/10/23 09:10:41;;;;;;;28.33;6.35;;;;;;;22.11;52.19;98410.41;5049209;28;20514;-44
2022/10/23 09:14:01;;;;;;;21.85;5.53;;;;;;;22.18;51.48;98393.22;5049507;28;20040;-44
2022/10/23 09:16:43;;;;;;;20.02;5.00;;;;;;;22.09;51.95;98399.19;4997124;28;20461;-44
2022/10/23 09:19:16;;;;;;;27.30;4.90;;;;;;;21.98;52.39;98392.34;5029748;28;20056;-44
2022/10/23 09:21:46;;;;;;;30.75;4.88;;;;;;;21.96;52.71;98423.09;5013103;28;20172;-44
2022/10/23 09:24:18;;;;;;;22.27;5.10;;;;;;;21.95;51.43;98414.25;5012938;28;20038;-44
2022/10/23 09:26:48;;;;;;;29.23;5.70;;;;;;;21.97;51.71;98380.03;5029372;28;20038;-44
2022/10/23 09:29:37;;;;;;;32.70;4.97;;;;;;;21.99;52.03;98399.25;4996895;28;20510;-44
2022/10/23 09:32:06;;;;;;;21.00;6.22;;;;;;;22.08;51.37;98389.56;5029387;28;20068;-44
2022/10/23 09:34:35;;;;;;;23.67;4.88;;;;;;;22.22;51.07;98402.28;5029492;28;20443;-44
2022/10/23 09:37:19;;;;;;;31.45;5.63;;;;;;;22.28;50.83;98391.25;5012876;28;20033;-45
2022/10/23 09:39:45;;;;;;;27.42;4.97;;;;;;;22.46;51.14;98402.31;5012914;28;20048;-44
2022/10/23 09:42:29;;;;;;;20.98;4.72;;;;;;;22.59;49.88;98390.91;5029451;28;20029;-44
2022/10/23 09:44:56;;;;;;;32.67;4.97;;;;;;;22.59;50.45;98398.13;5029502;28;20495;-44
2022/10/23 09:47:24;;;;;;;25.38;5.68;;;;;;;22.55;49.72;98387.19;5029413;28;20522;-44
2022/10/23 09:49:53;;;;;;;24.55;5.28;;;;;;;22.48;50.31;98389.44;5028835;28;20033;-44
2022/10/23 09:52:34;;;;;;;26.90;5.05;;;;;;;22.44;50.40;98391.88;5071322;28;20029;-44
2022/10/23 09:55:02;;;;;;;20.92;5.18;;;;;;;22.50;49.99;98392.63;5070157;28;20517;-44
2022/10/23 09:57:41;;;;;;;24.63;4.97;;;;;;;22.60;49.38;98405.09;5070461;28;20036;-44
2022/10/23 10:00:13;;;;;;;21.77;5.57;;;;;;;22.64;49.55;98408.78;5071347;28;20024;-44
2022/10/23 10:02:41;;;;;;;21.92;4.65;;;;;;;22.73;49.80;98394.47;5103977;28;20036;-44
2022/10/23 10:05:24;;;;;;;20.10;4.65;;;;;;;22.90;48.35;98380.59;5072087;28;20070;-45
2022/10/23 10:08:04;;;;;;;21.65;4.72;;;;;;;22.99;48.19;98402.16;5073962;28;20033;-44
2022/10/23 10:10:47;;;;;;;17.58;4.70;;;;;;;23.22;47.53;98429.19;5075132;28;20499;-44
2022/10/23 10:13:37;;;;;;;21.27;5.95;;;;;;;23.48;47.39;98421.56;5073807;28;20119;-44
2022/10/23 10:16:10;;;;;;;23.90;4.68;;;;;;;23.83;46.10;98414.09;5075106;28;20052;-44
2022/10/23 10:19:07;;;;;;;28.58;4.35;;;;;;;24.18;45.87;98409.16;5073753;28;20111;-44
2022/10/23 10:21:46;;;;;;;25.02;4.75;;;;;;;24.76;44.01;98387.13;5065443;28;20512;-44
2022/10/23 10:24:28;;;;;;;24.90;4.57;;;;;;;24.87;43.09;98425.28;5107522;28;20020;-44
2022/10/23 10:27:17;;;;;;;22.10;5.38;;;;;;;25.21;42.68;98419.47;5107533;28;20039;-44
2022/10/23 10:30:01;;;;;;;29.17;5.70;;;;;;;25.37;42.36;98419.13;5073540;28;20032;-44
2022/10/23 10:32:42;;;;;;;23.45;5.68;;;;;;;25.48;42.41;98413.19;5107297;28;20380;-45
2022/10/23 10:35:32;;;;;;;22.80;4.97;;;;;;;25.66;40.92;98426.78;5107332;28;20035;-44
2022/10/23 10:38:15;;;;;;;40.67;6.32;;;;;;;25.73;41.08;98447.84;5074729;28;20849;-44
2022/10/23 10:40:55;;;;;;;25.35;5.43;;;;;;;25.84;40.71;98438.44;5074899;28;20398;-44
2022/10/23 10:43:53;;;;;;;23.65;5.10;;;;;;;25.87;40.15;98445.88;5074633;28;20071;-44
2022/10/23 10:46:46;;;;;;;29.35;6.30;;;;;;;25.78;40.60;98447.72;5074486;28;20103;-44
2022/10/23 10:49:26;;;;;;;29.52;5.85;;;;;;;25.60;40.56;98434.16;5074522;28;20036;-45
2022/10/23 10:52:24;;;;;;;24.25;5.70;;;;;;;25.51;41.21;98433.28;5074380;28;20027;-44
2022/10/23 10:55:02;;;;;;;38.17;5.60;;;;;;;25.62;40.74;98450.78;5074412;28;20032;-44
2022/10/23 10:57:33;;;;;;;29.17;5.90;;;;;;;25.62;41.02;98429.28;5107282;28;20036;-45
2022/10/23 11:00:15;;;;;;;32.83;6.05;;;;;;;25.75;40.63;98432.19;5074407;28;20036;-44
2022/10/23 11:03:18;;;;;;;22.00;4.75;;;;;;;26.08;40.20;98422.00;5074306;28;20036;-44
2022/10/23 11:05:47;;;;;;;24.90;5.60;;;;;;;26.14;39.23;98382.28;5066461;28;20044;-45
2022/10/23 11:08:26;;;;;;;37.70;6.13;;;;;;;26.18;39.72;98420.91;5074375;28;20394;-44
2022/10/23 11:10:59;;;;;;;27.63;5.80;;;;;;;26.21;40.06;98423.78;5073768;28;20052;-44
2022/10/23 11:13:34;;;;;;;21.98;4.85;;;;;;;26.07;39.99;98391.59;5074036;28;20027;-45
2022/10/23 11:16:32;;;;;;;27.48;5.18;;;;;;;25.97;39.87;98399.13;5074003;28;20029;-44
2022/10/23 11:19:26;;;;;;;22.65;4.95;;;;;;;26.11;39.85;98391.75;5070603;28;20418;-45
2022/10/23 11:21:58;;;;;;;28.65;5.95;;;;;;;26.26;39.25;98394.06;5070212;28;20127;-44
2022/10/23 11:24:40;;;;;;;26.70;5.40;;;;;;;26.43;38.26;98382.53;5106388;28;20182;-45
2022/10/23 11:27:24;;;;;;;27.58;5.63;;;;;;;26.35;38.50;98369.06;5106670;28;20036;-44
2022/10/23 11:30:17;;;;;;;26.08;5.00;;;;;;;26.35;38.89;98391.38;5055888;28;20024;-44
2022/10/23 11:33:00;;;;;;;32.33;5.45;;;;;;;26.13;39.34;98368.03;5073639;28;20024;-45
2022/10/23 11:35:52;;;;;;;33.78;6.05;;;;;;;26.02;39.84;98356.78;5106156;28;20041;-45
2022/10/23 11:38:30;;;;;;;27.42;6.35;;;;;;;25.84;39.87;98360.47;5073634;28;20031;-45
2022/10/23 11:41:04;;;;;;;20.38;4.93;;;;;;;25.67;40.04;98364.63;5106155;28;20047;-45
2022/10/23 11:43:55;;;;;;;38.97;6.88;;;;;;;25.38;41.04;98359.72;5072369;28;20481;-44
2022/10/23 11:46:27;;;;;;;32.42;6.28;;;;;;;25.31;41.13;98345.91;5073259;28;20042;-44
2022/10/23 11:48:54;;;;;;;27.52;6.70;;;;;;;25.43;40.88;98329.22;5073381;28;20020;-44